createdAt,value
2019-01-28T00:01:22.940Z,3.97
2019-01-28T00:03:53.394Z,3.90
2019-01-28T00:06:23.504Z,5.30
2019-01-28T00:08:54.030Z,4.77
2019-01-28T00:11:24.386Z,4.80
2019-01-28T00:13:55.368Z,4.57
2019-01-28T00:16:26.036Z,6.07
2019-01-28T00:18:56.465Z,5.53
2019-01-28T00:21:26.762Z,7.10
2019-01-28T00:23:57.498Z,4.13
2019-01-28T00:26:27.950Z,5.33
2019-01-28T00:28:59.057Z,5.43
2019-01-28T00:31:29.742Z,4.93
2019-01-28T00:34:00.365Z,4.90
2019-01-28T00:36:30.580Z,7.23
2019-01-28T00:39:01.173Z,6.00
2019-01-28T00:41:31.426Z,5.13
2019-01-28T00:44:01.255Z,3.80
2019-01-28T00:46:31.084Z,3.90
2019-01-28T00:49:00.357Z,4.43
2019-01-28T00:51:29.667Z,3.37
2019-01-28T00:53:58.939Z,4.10
2019-01-28T00:56:28.534Z,3.30
2019-01-28T00:58:57.814Z,2.53
2019-01-28T01:01:27.261Z,3.20
2019-01-28T01:03:56.536Z,3.33
2019-01-28T01:06:25.925Z,2.70
2019-01-28T01:08:55.271Z,3.53
2019-01-28T01:11:24.887Z,3.50
2019-01-28T01:13:54.411Z,4.57
2019-01-28T01:16:23.730Z,4.37
2019-01-28T01:18:53.505Z,2.50
2019-01-28T01:21:22.911Z,4.03
2019-01-28T01:23:52.194Z,3.67
2019-01-28T01:26:21.869Z,4.57
2019-01-28T01:28:51.152Z,2.67
2019-01-28T01:31:20.732Z,2.17
2019-01-28T01:33:50.012Z,2.53
2019-01-28T01:36:19.385Z,5.63
2019-01-28T01:38:48.862Z,4.77
2019-01-28T01:41:18.238Z,2.97
2019-01-28T01:43:47.709Z,2.53
2019-01-28T01:46:17.294Z,2.93
2019-01-28T01:48:46.667Z,2.67
2019-01-28T01:51:16.019Z,3.23
2019-01-28T01:53:45.320Z,1.90
2019-01-28T01:56:14.594Z,2.20
2019-01-28T01:58:44.280Z,2.87
2019-01-28T02:01:13.578Z,1.90
2019-01-28T02:03:42.890Z,2.20
2019-01-28T02:06:12.161Z,2.97
2019-01-28T02:08:41.469Z,2.13
2019-01-28T02:11:10.808Z,2.23
2019-01-28T02:13:40.373Z,3.20
2019-01-28T02:16:09.649Z,2.50
2019-01-28T02:18:39.155Z,3.17
2019-01-28T02:21:08.749Z,2.43
2019-01-28T02:23:38.316Z,2.70
2019-01-28T02:26:07.860Z,2.70
2019-01-28T02:28:37.172Z,2.50
2019-01-28T02:31:06.514Z,2.40
2019-01-28T02:33:35.830Z,2.60
2019-01-28T02:36:05.757Z,3.27
2019-01-28T02:38:35.104Z,3.00
2019-01-28T02:41:04.841Z,2.70
2019-01-28T02:43:34.139Z,2.77
2019-01-28T02:46:03.783Z,2.40
2019-01-28T02:48:33.097Z,2.37
2019-01-28T02:51:02.500Z,2.53
2019-01-28T02:53:32.008Z,2.30
2019-01-28T02:56:01.317Z,2.53
2019-01-28T02:58:30.727Z,1.77
2019-01-28T03:01:00.044Z,2.17
2019-01-28T03:03:30.077Z,2.57
2019-01-28T03:05:59.379Z,2.57
2019-01-28T03:08:29.422Z,1.73
2019-01-28T03:10:58.796Z,2.43
2019-01-28T03:13:28.062Z,3.27
2019-01-28T03:15:57.373Z,2.67
2019-01-28T03:18:26.990Z,2.40
2019-01-28T03:20:56.297Z,4.40
2019-01-28T03:23:26.348Z,2.00
2019-01-28T03:25:55.664Z,2.20
2019-01-28T03:28:24.941Z,1.77
2019-01-28T03:30:54.239Z,2.00
2019-01-28T03:33:23.521Z,1.63
2019-01-28T03:35:52.810Z,1.83
2019-01-28T03:38:23.994Z,2.23
2019-01-28T03:40:55.100Z,1.90
2019-01-28T03:43:24.401Z,2.73
2019-01-28T03:45:53.670Z,2.30
2019-01-28T03:48:22.987Z,2.03
2019-01-28T03:50:52.465Z,1.77
2019-01-28T03:53:22.604Z,1.93
2019-01-28T03:55:52.395Z,2.33
2019-01-28T03:58:21.776Z,3.67
2019-01-28T04:00:51.166Z,2.53
2019-01-28T04:03:20.482Z,2.03
2019-01-28T04:05:49.833Z,2.43
2019-01-28T04:08:19.210Z,1.73
2019-01-28T04:10:48.514Z,2.90
2019-01-28T04:13:17.859Z,2.37
2019-01-28T04:15:47.295Z,2.40
2019-01-28T04:18:16.606Z,1.83
2019-01-28T04:20:45.991Z,2.50
2019-01-28T04:23:15.309Z,1.67
2019-01-28T04:25:44.582Z,2.20
2019-01-28T04:28:13.893Z,2.63
2019-01-28T04:30:43.178Z,1.53
2019-01-28T04:33:12.467Z,1.90
2019-01-28T04:35:41.739Z,2.27
2019-01-28T04:38:11.040Z,1.77
2019-01-28T04:40:40.329Z,1.77
2019-01-28T04:43:09.633Z,1.27
2019-01-28T04:45:39.229Z,1.37
2019-01-28T04:48:08.527Z,3.17
2019-01-28T04:50:38.024Z,3.60
2019-01-28T04:53:07.324Z,2.20
2019-01-28T04:55:36.811Z,2.45
2019-01-28T04:58:06.244Z,2.27
2019-01-28T05:00:35.601Z,3.13
2019-01-28T05:03:05.095Z,1.93
2019-01-28T05:05:34.384Z,2.67
2019-01-28T05:08:03.658Z,1.43
2019-01-28T05:10:32.966Z,2.13
2019-01-28T05:13:02.252Z,1.53
2019-01-28T05:15:31.730Z,2.87
2019-01-28T05:18:00.980Z,1.40
2019-01-28T05:20:30.278Z,2.10
2019-01-28T05:22:59.579Z,1.60
2019-01-28T05:25:29.012Z,1.57
2019-01-28T05:27:58.282Z,2.47
2019-01-28T05:30:27.642Z,1.57
2019-01-28T05:32:56.938Z,1.47
2019-01-28T05:35:26.242Z,1.70
2019-01-28T05:37:55.591Z,1.43
2019-01-28T05:40:25.735Z,2.20
2019-01-28T05:42:55.082Z,1.57
2019-01-28T05:45:25.558Z,1.10
2019-01-28T05:47:55.283Z,2.67
2019-01-28T05:50:24.681Z,3.43
2019-01-28T05:52:54.286Z,2.00
2019-01-28T05:55:23.576Z,2.02
2019-01-28T05:57:52.957Z,1.33
2019-01-28T06:00:30.812Z,2.00
2019-01-28T06:03:00.106Z,1.40
2019-01-28T06:05:29.383Z,2.10
2019-01-28T06:07:58.721Z,2.58
2019-01-28T06:10:27.999Z,1.70
2019-01-28T06:12:57.396Z,1.52
2019-01-28T06:15:26.761Z,1.60
2019-01-28T06:17:56.065Z,3.03
2019-01-28T06:20:26.516Z,1.13
2019-01-28T06:22:55.914Z,1.83
2019-01-28T06:25:25.258Z,2.05
2019-01-28T06:27:54.560Z,1.93
2019-01-28T06:30:31.805Z,1.42
2019-01-28T06:33:01.178Z,2.12
2019-01-28T06:35:30.518Z,1.70
2019-01-28T06:37:59.811Z,3.37
2019-01-28T06:40:32.303Z,2.07
2019-01-28T06:43:01.585Z,1.43
2019-01-28T06:45:30.994Z,1.75
2019-01-28T06:48:00.445Z,2.20
2019-01-28T06:50:29.822Z,1.45
2019-01-28T06:52:59.143Z,1.42
2019-01-28T06:55:28.509Z,1.80
2019-01-28T06:57:57.912Z,1.00
2019-01-28T07:00:32.725Z,1.17
2019-01-28T07:03:02.461Z,1.37
2019-01-28T07:05:32.416Z,1.83
2019-01-28T07:08:01.740Z,1.50
2019-01-28T07:10:31.073Z,1.30
2019-01-28T07:13:00.368Z,1.50
2019-01-28T07:15:29.859Z,2.47
2019-01-28T07:17:59.370Z,1.85
2019-01-28T07:20:32.132Z,2.20
2019-01-28T07:23:01.875Z,2.08
2019-01-28T07:25:31.349Z,2.75
2019-01-28T07:28:00.804Z,3.30
2019-01-28T07:30:35.425Z,1.67
2019-01-28T07:33:05.336Z,1.77
2019-01-28T07:35:34.773Z,2.23
2019-01-28T07:38:05.864Z,2.57
2019-01-28T07:40:35.307Z,3.87
2019-01-28T07:43:04.743Z,6.23
2019-01-28T07:45:35.785Z,3.10
2019-01-28T07:48:05.398Z,3.67
2019-01-28T07:50:34.772Z,3.57
2019-01-28T07:53:04.690Z,3.30
2019-01-28T07:55:34.451Z,3.40
2019-01-28T07:58:05.273Z,2.87
2019-01-28T08:00:35.399Z,2.97
2019-01-28T08:03:05.690Z,2.27
2019-01-28T08:05:35.140Z,3.43
2019-01-28T08:08:05.303Z,4.43
2019-01-28T08:10:34.594Z,3.50
2019-01-28T08:13:04.879Z,2.67
2019-01-28T08:15:34.255Z,2.77
2019-01-28T08:18:10.480Z,2.20
2019-01-28T08:20:34.773Z,2.63
2019-01-28T08:23:04.806Z,3.67
2019-01-28T08:25:34.414Z,2.57
2019-01-28T08:28:04.758Z,2.63
2019-01-28T08:30:35.967Z,2.37
2019-01-28T08:33:05.401Z,2.87
2019-01-28T08:35:35.244Z,3.30
2019-01-28T08:38:04.675Z,3.40
2019-01-28T08:40:34.129Z,2.97
2019-01-28T08:43:03.499Z,4.27
2019-01-28T08:45:32.852Z,2.50
2019-01-28T08:48:02.299Z,2.70
2019-01-28T08:50:31.555Z,2.67
2019-01-28T08:53:00.855Z,3.60
2019-01-28T08:55:30.374Z,4.00
2019-01-28T08:57:59.938Z,2.00
2019-01-28T09:00:34.876Z,2.33
2019-01-28T09:03:04.319Z,2.40
2019-01-28T09:05:33.761Z,2.03
2019-01-28T09:08:03.206Z,2.50
2019-01-28T09:10:33.281Z,2.17
2019-01-28T09:13:02.550Z,2.60
2019-01-28T09:15:32.224Z,2.73
2019-01-28T09:18:01.858Z,2.20
2019-01-28T09:20:33.088Z,2.50
2019-01-28T09:23:02.881Z,2.13
2019-01-28T09:25:32.381Z,2.70
2019-01-28T09:28:02.491Z,7.63
2019-01-28T09:30:34.016Z,2.97
2019-01-28T09:33:04.687Z,3.60
2019-01-28T09:35:34.135Z,2.30
2019-01-28T09:38:03.844Z,2.50
2019-01-28T09:40:35.733Z,2.20
2019-01-28T09:43:06.045Z,3.27
2019-01-28T09:45:41.012Z,2.50
2019-01-28T09:48:12.729Z,2.30
2019-01-28T09:50:42.989Z,2.60
2019-01-28T09:53:13.318Z,2.83
2019-01-28T09:55:43.235Z,3.07
2019-01-28T09:58:12.612Z,2.30
2019-01-28T10:00:45.260Z,2.23
2019-01-28T10:03:14.601Z,3.90
2019-01-28T10:05:44.002Z,2.50
2019-01-28T10:08:13.948Z,2.70
2019-01-28T10:10:43.526Z,2.87
2019-01-28T10:13:12.818Z,2.77
2019-01-28T10:15:42.534Z,2.97
2019-01-28T10:18:11.901Z,3.57
2019-01-28T10:20:44.741Z,4.03
2019-01-28T10:23:14.665Z,2.80
2019-01-28T10:25:44.375Z,3.33
2019-01-28T10:28:13.758Z,3.10
2019-01-28T10:30:46.849Z,3.13
2019-01-28T10:33:16.875Z,2.87
2019-01-28T10:35:46.893Z,3.70
2019-01-28T10:38:16.633Z,3.30
2019-01-28T10:40:46.760Z,3.50
2019-01-28T10:43:17.051Z,3.73
2019-01-28T10:45:47.817Z,3.30
2019-01-28T10:48:18.095Z,3.60
2019-01-28T10:50:47.362Z,2.93
2019-01-28T10:53:16.743Z,3.33
2019-01-28T10:55:46.544Z,3.93
2019-01-28T10:58:15.851Z,3.37
2019-01-28T11:00:47.452Z,3.67
2019-01-28T11:03:18.396Z,3.00
2019-01-28T11:05:47.795Z,2.93
2019-01-28T11:08:17.271Z,2.57
2019-01-28T11:10:46.636Z,2.60
2019-01-28T11:13:15.957Z,2.70
2019-01-28T11:15:45.357Z,3.27
2019-01-28T11:18:21.208Z,3.23
2019-01-28T11:20:51.008Z,2.60
2019-01-28T11:23:20.633Z,3.93
2019-01-28T11:25:49.982Z,4.03
2019-01-28T11:28:19.321Z,2.87
2019-01-28T11:30:55.658Z,2.97
2019-01-28T11:33:25.146Z,3.27
2019-01-28T11:35:55.190Z,2.33
2019-01-28T11:38:25.471Z,2.90
2019-01-28T11:40:54.946Z,3.60
2019-01-28T11:43:24.377Z,3.70
2019-01-28T11:45:59.589Z,3.57
2019-01-28T11:48:29.124Z,4.10
2019-01-28T11:50:58.500Z,4.53
2019-01-28T11:53:27.934Z,5.93
2019-01-28T11:55:57.498Z,6.73
2019-01-28T11:58:26.841Z,6.30
2019-01-28T12:01:00.844Z,9.43
2019-01-28T12:03:31.001Z,7.63
2019-01-28T12:06:00.362Z,7.73
2019-01-28T12:08:29.678Z,8.97
2019-01-28T12:10:58.999Z,7.97
2019-01-28T12:13:28.710Z,11.67
2019-01-28T12:15:58.086Z,10.20
2019-01-28T12:18:27.503Z,10.27
2019-01-28T12:20:56.809Z,11.43
2019-01-28T12:23:26.196Z,9.77
2019-01-28T12:25:55.682Z,9.77
2019-01-28T12:28:24.960Z,8.83
2019-01-28T12:30:54.604Z,8.47
2019-01-28T12:33:23.897Z,9.67
2019-01-28T12:35:53.189Z,10.20
2019-01-28T12:38:22.523Z,11.87
2019-01-28T12:40:51.807Z,12.30
2019-01-28T12:43:21.258Z,8.90
2019-01-28T12:45:50.534Z,11.40
2019-01-28T12:48:19.953Z,11.77
2019-01-28T12:50:49.178Z,7.80
2019-01-28T12:53:18.469Z,9.57
2019-01-28T12:55:47.736Z,9.23
2019-01-28T12:58:17.145Z,9.90
2019-01-28T13:00:50.814Z,9.87
2019-01-28T13:03:20.639Z,13.37
2019-01-28T13:05:50.029Z,10.90
2019-01-28T13:08:19.414Z,9.67
2019-01-28T13:10:48.764Z,13.20
2019-01-28T13:13:18.062Z,9.10
2019-01-28T13:15:47.977Z,11.87
2019-01-28T13:18:18.060Z,10.27
2019-01-28T13:20:47.742Z,10.97
2019-01-28T13:23:17.047Z,10.80
2019-01-28T13:25:46.395Z,10.73
2019-01-28T13:28:15.768Z,11.97
2019-01-28T13:30:45.270Z,11.30
2019-01-28T13:33:16.119Z,9.57
2019-01-28T13:35:45.545Z,7.27
2019-01-28T13:38:14.933Z,7.57
2019-01-28T13:40:44.344Z,7.77
2019-01-28T13:43:13.694Z,7.40
2019-01-28T13:45:43.079Z,7.97
2019-01-28T13:48:13.503Z,6.80
2019-01-28T13:50:44.145Z,6.33
2019-01-28T13:53:13.693Z,5.27
2019-01-28T13:55:43.122Z,8.10
2019-01-28T13:58:12.603Z,5.70
2019-01-28T14:00:42.331Z,7.93
2019-01-28T14:03:11.691Z,6.63
2019-01-28T14:05:41.176Z,6.33
2019-01-28T14:08:10.619Z,6.93
2019-01-28T14:10:39.984Z,7.83
2019-01-28T14:13:09.379Z,7.30
2019-01-28T14:15:40.008Z,5.30
2019-01-28T14:18:10.522Z,7.83
2019-01-28T14:20:41.541Z,7.27
2019-01-28T14:23:10.987Z,7.23
2019-01-28T14:25:40.284Z,5.97
2019-01-28T14:28:09.820Z,8.37
2019-01-28T14:30:42.164Z,6.90
2019-01-28T14:33:11.595Z,46.17
2019-01-28T14:35:41.739Z,7.30
2019-01-28T14:38:12.090Z,5.83
2019-01-28T14:40:42.558Z,8.60
2019-01-28T14:43:11.903Z,11.60
2019-01-28T14:45:41.203Z,10.60
2019-01-28T14:48:11.057Z,9.77
2019-01-28T14:50:40.799Z,10.10
2019-01-28T14:53:10.725Z,9.03
2019-01-28T14:55:40.096Z,7.53
2019-01-28T14:58:10.152Z,7.20
2019-01-28T15:00:41.891Z,16.17
2019-01-28T15:03:11.865Z,15.47
2019-01-28T15:05:41.295Z,9.17
2019-01-28T15:08:10.961Z,8.93
2019-01-28T15:10:40.513Z,7.13
2019-01-28T15:13:09.813Z,9.93
2019-01-28T15:15:40.719Z,6.83
2019-01-28T15:18:12.322Z,9.00
2019-01-28T15:20:41.986Z,7.93
2019-01-28T15:23:11.360Z,8.03
2019-01-28T15:25:40.779Z,8.90
2019-01-28T15:28:10.094Z,11.37
2019-01-28T15:30:39.544Z,7.63
2019-01-28T15:33:08.971Z,6.77
2019-01-28T15:35:38.390Z,11.03
2019-01-28T15:38:07.751Z,9.10
2019-01-28T15:40:38.005Z,10.00
2019-01-28T15:43:07.470Z,6.00
2019-01-28T15:45:39.680Z,8.67
2019-01-28T15:48:09.635Z,9.57
2019-01-28T15:50:40.602Z,9.47
2019-01-28T15:53:10.279Z,7.00
2019-01-28T15:55:41.181Z,8.07
2019-01-28T15:58:10.847Z,7.27
2019-01-28T16:00:42.715Z,36.60
2019-01-28T16:03:12.257Z,8.13
2019-01-28T16:05:42.191Z,9.23
2019-01-28T16:08:11.571Z,12.80
2019-01-28T16:10:41.080Z,9.63
2019-01-28T16:13:10.474Z,10.93
2019-01-28T16:15:45.590Z,11.20
2019-01-28T16:18:14.907Z,7.20
2019-01-28T16:20:44.610Z,7.87
2019-01-28T16:23:13.940Z,6.07
2019-01-28T16:25:43.226Z,8.37
2019-01-28T16:28:12.536Z,45.97
2019-01-28T16:30:42.467Z,7.30
2019-01-28T16:33:11.771Z,6.33
2019-01-28T16:35:41.545Z,10.77
2019-01-28T16:38:10.817Z,9.77
2019-01-28T16:40:40.288Z,12.87
2019-01-28T16:43:09.897Z,6.97
2019-01-28T16:45:39.226Z,9.73
2019-01-28T16:48:08.875Z,7.73
2019-01-28T16:50:39.044Z,11.00
2019-01-28T16:53:08.684Z,7.80
2019-01-28T16:55:38.617Z,6.03
2019-01-28T16:58:08.252Z,6.07
2019-01-28T17:00:41.248Z,6.63
2019-01-28T17:03:11.278Z,10.87
2019-01-28T17:05:41.510Z,16.30
2019-01-28T17:08:11.181Z,9.87
2019-01-28T17:10:40.885Z,9.30
2019-01-28T17:13:10.400Z,5.03
2019-01-28T17:15:39.977Z,6.93
2019-01-28T17:18:09.352Z,8.60
2019-01-28T17:20:39.195Z,6.83
2019-01-28T17:23:09.357Z,7.73
2019-01-28T17:25:41.643Z,6.83
2019-01-28T17:28:11.106Z,6.33
2019-01-28T17:30:43.272Z,9.50
2019-01-28T17:33:12.656Z,6.67
2019-01-28T17:35:42.227Z,8.27
2019-01-28T17:38:11.812Z,15.03
2019-01-28T17:40:42.599Z,10.83
2019-01-28T17:43:12.717Z,7.33
2019-01-28T17:45:42.021Z,6.93
2019-01-28T17:48:11.771Z,10.33
2019-01-28T17:50:43.818Z,7.67
2019-01-28T17:53:12.441Z,10.43
2019-01-28T17:55:41.808Z,9.53
2019-01-28T17:58:11.523Z,6.80
2019-01-28T18:00:42.467Z,6.90
2019-01-28T18:03:11.896Z,7.37
2019-01-28T18:05:41.276Z,9.53
2019-01-28T18:08:10.680Z,12.13
2019-01-28T18:10:40.019Z,13.33
2019-01-28T18:13:09.365Z,10.13
2019-01-28T18:15:38.649Z,8.77
2019-01-28T18:18:08.040Z,13.13
2019-01-28T18:20:37.456Z,10.00
2019-01-28T18:23:07.615Z,10.53
2019-01-28T18:25:37.272Z,9.77
2019-01-28T18:28:07.127Z,10.20
2019-01-28T18:30:47.998Z,13.83
2019-01-28T18:33:17.362Z,11.37
2019-01-28T18:35:47.216Z,15.43
2019-01-28T18:38:16.503Z,11.77
2019-01-28T18:40:46.147Z,11.27
2019-01-28T18:43:15.488Z,11.90
2019-01-28T18:45:44.798Z,9.67
2019-01-28T18:48:14.151Z,11.90
2019-01-28T18:50:43.516Z,7.27
2019-01-28T18:53:13.057Z,6.70
2019-01-28T18:55:42.437Z,7.20
2019-01-28T18:58:11.774Z,6.47
2019-01-28T19:00:41.087Z,8.37
2019-01-28T19:03:10.428Z,7.43
2019-01-28T19:05:50.042Z,6.20
2019-01-28T19:08:21.035Z,11.73
2019-01-28T19:10:58.297Z,10.47
2019-01-28T19:13:32.305Z,8.88
2019-01-28T19:16:03.314Z,7.80
2019-01-28T19:18:34.400Z,7.43
2019-01-28T19:21:08.649Z,8.37
2019-01-28T19:23:37.940Z,11.37
2019-01-28T19:26:07.355Z,16.53
2019-01-28T19:28:36.678Z,19.87
2019-01-28T19:31:06.215Z,10.30
2019-01-28T19:33:35.520Z,10.60
2019-01-28T19:36:05.459Z,11.97
2019-01-28T19:38:34.962Z,11.27
2019-01-28T19:41:04.553Z,13.07
2019-01-28T19:43:33.975Z,17.43
2019-01-28T19:46:03.343Z,12.80
2019-01-28T19:48:32.752Z,7.40
2019-01-28T19:51:02.388Z,8.37
2019-01-28T19:53:31.654Z,7.70
2019-01-28T19:56:01.485Z,9.77
2019-01-28T19:58:30.810Z,12.50
2019-01-28T20:01:00.274Z,10.40
2019-01-28T20:03:29.591Z,8.23
2019-01-28T20:05:59.080Z,7.20
2019-01-28T20:08:28.438Z,9.33
2019-01-28T20:10:57.814Z,9.33
2019-01-28T20:13:27.285Z,9.13
2019-01-28T20:15:56.580Z,5.43
2019-01-28T20:18:25.891Z,5.77
2019-01-28T20:20:55.209Z,8.50
2019-01-28T20:23:24.588Z,6.47
2019-01-28T20:25:53.881Z,7.97
2019-01-28T20:28:23.181Z,7.93
2019-01-28T20:30:52.558Z,10.83
2019-01-28T20:33:21.844Z,8.53
2019-01-28T20:35:51.149Z,9.23
2019-01-28T20:38:20.456Z,8.40
2019-01-28T20:40:49.750Z,8.70
2019-01-28T20:43:23.878Z,9.30
2019-01-28T20:45:50.115Z,8.80
2019-01-28T20:48:19.501Z,8.23
2019-01-28T20:50:48.801Z,7.00
2019-01-28T20:53:18.193Z,14.53
2019-01-28T20:55:47.530Z,9.95
2019-01-28T20:58:16.790Z,9.87
2019-01-28T21:00:46.166Z,13.17
2019-01-28T21:03:15.864Z,11.77
2019-01-28T21:05:45.198Z,10.87
2019-01-28T21:08:14.494Z,10.90
2019-01-28T21:10:43.764Z,12.83
2019-01-28T21:13:13.246Z,10.47
2019-01-28T21:15:42.604Z,11.07
2019-01-28T21:18:12.665Z,12.33
2019-01-28T21:20:42.024Z,10.87
2019-01-28T21:23:11.424Z,10.67
2019-01-28T21:25:40.757Z,11.07
2019-01-28T21:28:10.142Z,13.47
2019-01-28T21:30:39.502Z,9.47
2019-01-28T21:33:08.893Z,8.43
2019-01-28T21:35:48.740Z,9.90
2019-01-28T21:38:34.934Z,9.50
2019-01-28T21:41:04.679Z,9.27
2019-01-28T21:43:34.023Z,10.07
2019-01-28T21:46:03.488Z,11.13
2019-01-28T21:48:33.024Z,8.17
2019-01-28T21:51:02.323Z,11.80
2019-01-28T21:53:31.693Z,9.20
2019-01-28T21:56:00.921Z,9.80
2019-01-28T21:58:30.573Z,8.90
2019-01-28T22:00:59.859Z,9.53
2019-01-28T22:03:29.298Z,13.73
2019-01-28T22:05:58.597Z,7.17
2019-01-28T22:08:27.915Z,8.10
2019-01-28T22:10:57.213Z,8.73
2019-01-28T22:13:26.563Z,11.93
2019-01-28T22:15:55.877Z,9.43
2019-01-28T22:18:27.032Z,8.33
2019-01-28T22:20:56.247Z,9.33
2019-01-28T22:23:25.517Z,13.27
2019-01-28T22:25:54.864Z,12.07
2019-01-28T22:28:24.159Z,10.03
2019-01-28T22:30:53.460Z,8.33
2019-01-28T22:33:22.731Z,9.40
2019-01-28T22:35:52.031Z,11.83
2019-01-28T22:38:22.661Z,11.73
2019-01-28T22:40:52.304Z,7.13
2019-01-28T22:43:21.958Z,9.90
2019-01-28T22:45:51.314Z,9.63
2019-01-28T22:48:20.665Z,10.57
2019-01-28T22:50:49.965Z,12.50
2019-01-28T22:53:19.238Z,8.93
2019-01-28T22:55:48.618Z,10.70
2019-01-28T22:58:18.073Z,9.07
2019-01-28T23:00:54.306Z,11.47
2019-01-28T23:03:25.848Z,8.87
2019-01-28T23:05:55.215Z,10.33
2019-01-28T23:08:24.522Z,12.07
2019-01-28T23:10:53.865Z,8.93
2019-01-28T23:13:23.170Z,10.83
2019-01-28T23:15:52.487Z,12.03
2019-01-28T23:18:21.795Z,12.23
2019-01-28T23:20:51.080Z,9.87
2019-01-28T23:23:20.386Z,11.07
2019-01-28T23:25:49.670Z,12.33
2019-01-28T23:28:19.177Z,11.10
2019-01-28T23:30:48.827Z,11.18
2019-01-28T23:33:18.273Z,10.72
2019-01-28T23:35:47.656Z,13.07
2019-01-28T23:38:16.958Z,9.73
2019-01-28T23:40:46.245Z,14.33
2019-01-28T23:43:16.212Z,11.37
2019-01-28T23:45:45.894Z,13.97
2019-01-28T23:48:15.861Z,10.10
2019-01-28T23:50:45.178Z,12.90
2019-01-28T23:53:14.678Z,12.00
2019-01-28T23:55:43.977Z,11.90
2019-01-28T23:58:13.289Z,18.87
